createdAt,value
2022-12-11T00:04:36.570Z,62.91
2022-12-11T00:07:25.907Z,62.26
2022-12-11T00:13:09.296Z,62.78
2022-12-11T00:16:02.515Z,62.61
2022-12-11T00:18:37.296Z,62.39
2022-12-11T00:24:57.186Z,62.27
2022-12-11T00:28:10.512Z,62.61
2022-12-11T00:30:46.980Z,62.73
2022-12-11T00:33:26.146Z,62.41
2022-12-11T00:36:33.058Z,62.14
2022-12-11T00:39:06.861Z,62.20
2022-12-11T00:41:40.631Z,62.08
2022-12-11T00:44:12.524Z,61.96
2022-12-11T00:47:02.454Z,62.26
2022-12-11T00:49:45.134Z,62.44
2022-12-11T00:53:00.450Z,62.31
2022-12-11T00:55:33.769Z,62.63
2022-12-11T00:58:11.249Z,62.06
2022-12-11T01:09:30.862Z,62.84
2022-12-11T01:12:15.515Z,62.69
2022-12-11T01:15:18.929Z,62.55
2022-12-11T01:17:58.512Z,62.97
2022-12-11T01:20:43.907Z,62.30
2022-12-11T01:27:48.374Z,62.99
2022-12-11T01:30:56.551Z,62.65
2022-12-11T01:33:49.554Z,62.83
2022-12-11T01:36:36.741Z,62.78
2022-12-11T01:47:22.532Z,62.50
2022-12-11T01:50:50.353Z,62.46
2022-12-11T01:55:17.052Z,61.97
2022-12-11T01:58:18.244Z,62.41
2022-12-11T02:04:21.050Z,61.95
2022-12-11T02:06:59.766Z,61.88
2022-12-11T02:09:47.781Z,62.11
2022-12-11T02:15:42.423Z,62.36
2022-12-11T02:19:23.355Z,61.79
2022-12-11T02:25:22.531Z,62.58
2022-12-11T02:28:08.338Z,62.56
2022-12-11T02:31:19.805Z,62.20
2022-12-11T02:34:11.167Z,62.48
2022-12-11T02:36:56.089Z,62.07
2022-12-11T02:39:50.482Z,62.40
2022-12-11T02:43:19.858Z,62.47
2022-12-11T02:54:12.911Z,62.81
2022-12-11T02:57:10.394Z,62.81
2022-12-11T03:00:03.767Z,62.17
2022-12-11T03:02:49.157Z,61.97
2022-12-11T03:05:42.038Z,62.43
2022-12-11T03:08:36.839Z,62.52
2022-12-11T03:17:37.562Z,62.23
2022-12-11T03:20:17.889Z,61.62
2022-12-11T03:27:56.972Z,62.55
2022-12-11T03:34:54.489Z,62.14
2022-12-11T03:38:06.828Z,62.37
2022-12-11T03:40:56.490Z,62.55
2022-12-11T03:43:53.096Z,61.86
2022-12-11T03:46:38.779Z,61.85
2022-12-11T03:49:25.363Z,62.18
2022-12-11T03:52:57.874Z,62.50
2022-12-11T03:58:43.294Z,62.85
2022-12-11T04:04:23.583Z,62.07
2022-12-11T04:07:08.945Z,62.57
2022-12-11T04:18:24.407Z,62.99
2022-12-11T04:25:58.907Z,63.40
2022-12-11T04:29:36.175Z,62.56
2022-12-11T04:34:58.780Z,63.19
2022-12-11T04:37:32.787Z,62.94
2022-12-11T04:40:04.882Z,63.23
2022-12-11T04:45:38.286Z,63.30
2022-12-11T04:51:47.944Z,63.00
2022-12-11T04:54:30.517Z,63.15
2022-12-11T04:57:16.056Z,62.73
2022-12-11T05:03:13.916Z,63.13
2022-12-11T05:12:24.092Z,62.48
2022-12-11T05:15:33.534Z,63.48
2022-12-11T05:18:29.928Z,62.80
2022-12-11T05:21:05.954Z,63.21
2022-12-11T05:24:03.222Z,63.18
2022-12-11T05:27:40.564Z,62.45
2022-12-11T05:30:35.939Z,63.08
2022-12-11T05:33:08.176Z,63.08
2022-12-11T05:35:53.681Z,62.86
2022-12-11T05:49:46.585Z,62.43
2022-12-11T05:52:54.081Z,62.31
2022-12-11T05:55:28.926Z,62.25
2022-12-11T05:58:10.790Z,62.50
2022-12-11T06:00:46.986Z,62.55
2022-12-11T06:03:46.148Z,62.51
2022-12-11T06:09:36.234Z,62.43
2022-12-11T06:13:10.042Z,62.44
2022-12-11T06:15:57.148Z,62.20
2022-12-11T06:19:15.922Z,62.31
2022-12-11T06:25:04.843Z,62.18
2022-12-11T06:31:07.996Z,62.15
2022-12-11T06:37:56.844Z,62.39
2022-12-11T06:43:35.855Z,62.67
2022-12-11T06:46:27.579Z,62.55
2022-12-11T06:49:02.183Z,62.95
2022-12-11T06:55:08.138Z,62.61
2022-12-11T06:58:02.204Z,62.09
2022-12-11T07:00:36.290Z,62.74
2022-12-11T07:03:23.486Z,62.33
2022-12-11T07:06:36.819Z,62.41
2022-12-11T07:09:34.025Z,62.02
2022-12-11T07:12:29.409Z,62.16
2022-12-11T07:22:03.969Z,62.23
2022-12-11T07:25:09.420Z,62.13
2022-12-11T07:37:32.429Z,61.95
2022-12-11T07:40:13.096Z,62.08
2022-12-11T07:42:51.141Z,62.24
2022-12-11T07:49:12.760Z,61.93
2022-12-11T07:55:58.688Z,62.18
2022-12-11T07:59:09.057Z,62.38
2022-12-11T08:01:43.194Z,62.99
2022-12-11T08:12:22.365Z,62.53
2022-12-11T08:15:07.522Z,62.56
2022-12-11T08:20:50.136Z,62.51
2022-12-11T08:23:21.455Z,62.14
2022-12-11T08:26:30.368Z,62.05
2022-12-11T08:40:22.567Z,63.00
2022-12-11T09:04:57.722Z,63.54
2022-12-11T09:22:54.222Z,63.28
2022-12-11T09:26:16.414Z,63.53
2022-12-11T09:32:55.189Z,63.49
2022-12-11T09:36:03.389Z,63.65
2022-12-11T09:39:35.685Z,62.71
2022-12-11T09:42:46.663Z,62.74
2022-12-11T10:00:15.722Z,63.50
2022-12-11T10:08:31.780Z,63.80
2022-12-11T10:12:17.070Z,63.70
2022-12-11T10:56:16.363Z,63.09
2022-12-11T11:03:51.757Z,63.29
2022-12-11T11:11:18.749Z,63.39
2022-12-11T11:27:33.720Z,63.88
2022-12-11T11:30:22.398Z,63.71
2022-12-11T11:33:11.811Z,63.35
2022-12-11T11:39:30.666Z,63.38
2022-12-11T11:45:40.333Z,63.52
2022-12-11T11:48:35.363Z,63.04
2022-12-11T11:55:11.295Z,63.12
2022-12-11T11:58:28.680Z,63.59
2022-12-11T12:01:29.182Z,63.63
2022-12-11T12:04:10.734Z,63.56
2022-12-11T12:07:36.212Z,63.58
2022-12-11T12:14:52.753Z,63.35
2022-12-11T12:22:46.498Z,63.66
2022-12-11T12:26:00.471Z,63.31
2022-12-11T12:29:03.382Z,63.12
2022-12-11T12:35:36.040Z,63.27
2022-12-11T12:51:00.034Z,63.53
2022-12-11T13:06:22.163Z,63.97
2022-12-11T13:17:43.386Z,63.43
2022-12-11T13:20:35.946Z,62.94
2022-12-11T13:24:04.025Z,62.73
2022-12-11T13:27:11.013Z,62.27
2022-12-11T13:40:32.269Z,62.13
2022-12-11T13:46:42.923Z,62.59
2022-12-11T13:49:37.008Z,62.68
2022-12-11T13:53:10.875Z,63.27
2022-12-11T13:59:11.017Z,62.64
2022-12-11T14:02:16.287Z,62.67
2022-12-11T14:04:55.537Z,62.80
2022-12-11T14:07:52.994Z,62.51
2022-12-11T14:11:08.230Z,62.37
2022-12-11T14:14:11.275Z,62.33
2022-12-11T14:16:58.488Z,62.30
2022-12-11T14:19:44.855Z,62.45
2022-12-11T14:22:26.180Z,62.45
2022-12-11T14:25:19.841Z,62.58
2022-12-11T14:27:57.481Z,62.42
2022-12-11T14:30:45.313Z,62.60
2022-12-11T14:33:27.134Z,62.41
2022-12-11T14:39:39.869Z,62.36
2022-12-11T14:46:55.145Z,62.13
2022-12-11T14:54:17.355Z,61.94
2022-12-11T15:08:08.687Z,62.12
2022-12-11T15:12:03.497Z,62.15
2022-12-11T15:18:45.956Z,62.54
2022-12-11T15:21:42.514Z,62.33
2022-12-11T15:24:31.292Z,62.70
2022-12-11T15:27:05.652Z,62.55
2022-12-11T15:30:00.883Z,62.56
2022-12-11T15:33:01.625Z,62.40
2022-12-11T15:35:56.721Z,62.17
2022-12-11T15:38:37.118Z,61.99
2022-12-11T15:41:33.694Z,62.35
2022-12-11T15:44:07.435Z,61.76
2022-12-11T15:46:52.557Z,61.81
2022-12-11T15:49:33.684Z,62.00
2022-12-11T15:52:07.623Z,61.94
2022-12-11T15:54:47.239Z,62.16
2022-12-11T15:57:22.047Z,62.21
2022-12-11T15:59:56.644Z,62.29
2022-12-11T16:02:27.478Z,61.82
2022-12-11T16:04:59.340Z,61.78
2022-12-11T16:07:44.508Z,62.07
2022-12-11T16:10:20.477Z,62.69
2022-12-11T16:56:05.728Z,62.15
2022-12-11T16:59:28.992Z,62.13
2022-12-11T17:15:08.245Z,62.57
2022-12-11T17:17:56.746Z,62.52
2022-12-11T17:43:18.652Z,62.48
2022-12-11T18:02:13.430Z,62.13
2022-12-11T18:18:40.896Z,62.62
2022-12-11T18:29:52.538Z,62.84
2022-12-11T18:39:45.534Z,62.86
2022-12-11T18:47:12.143Z,62.86
2022-12-11T18:49:44.172Z,62.27
2022-12-11T18:52:18.320Z,62.22
2022-12-11T18:58:30.929Z,62.17
2022-12-11T19:01:19.533Z,62.04
2022-12-11T19:04:05.586Z,62.09
2022-12-11T19:07:00.414Z,62.67
2022-12-11T19:09:36.897Z,61.97
2022-12-11T19:12:13.902Z,62.56
2022-12-11T19:18:46.433Z,62.32
2022-12-11T19:33:54.431Z,62.08
2022-12-11T19:36:50.120Z,62.84
2022-12-11T19:42:39.891Z,62.33
2022-12-11T20:36:01.410Z,61.94
2022-12-11T20:43:54.114Z,62.31
2022-12-11T21:39:39.583Z,62.12
2022-12-11T21:46:06.222Z,62.45
2022-12-11T21:49:08.936Z,61.91
2022-12-11T21:52:11.142Z,62.13
2022-12-11T21:55:57.335Z,62.27
2022-12-11T22:06:14.951Z,61.92
2022-12-11T22:13:19.559Z,61.79
2022-12-11T22:15:37.220Z,61.40
2022-12-11T22:18:53.514Z,61.26
2022-12-11T22:26:41.009Z,61.35
2022-12-11T22:29:42.472Z,61.51
2022-12-11T22:32:57.654Z,61.76
2022-12-11T22:35:32.149Z,61.65
2022-12-11T22:38:38.230Z,61.74
2022-12-11T22:42:09.935Z,61.35
2022-12-11T22:44:44.622Z,61.49
2022-12-11T22:47:15.532Z,61.41
2022-12-11T22:49:58.253Z,61.33
2022-12-11T22:52:28.391Z,61.05
2022-12-11T22:55:07.141Z,61.54
2022-12-11T22:57:37.141Z,61.02
2022-12-11T23:00:08.767Z,61.29
2022-12-11T23:02:36.821Z,61.46
2022-12-11T23:05:05.466Z,61.20
2022-12-11T23:07:33.638Z,61.00
2022-12-11T23:10:01.770Z,61.09
2022-12-11T23:12:29.777Z,60.83
2022-12-11T23:14:58.225Z,61.66
2022-12-11T23:17:27.518Z,61.76
2022-12-11T23:19:55.489Z,60.73
2022-12-11T23:22:23.598Z,61.52
2022-12-11T23:24:51.997Z,61.05
2022-12-11T23:27:19.930Z,60.69
2022-12-11T23:29:47.982Z,61.32
2022-12-11T23:32:15.923Z,61.14
2022-12-11T23:34:45.403Z,61.61
2022-12-11T23:37:14.486Z,61.13
2022-12-11T23:39:42.986Z,60.97
2022-12-11T23:42:12.471Z,61.21
2022-12-11T23:44:40.947Z,60.96
2022-12-11T23:47:08.926Z,61.38
2022-12-11T23:49:37.192Z,61.85
2022-12-11T23:52:07.072Z,61.03
2022-12-11T23:54:35.354Z,61.34
2022-12-11T23:57:03.876Z,61.79
2022-12-11T23:59:31.837Z,61.26
